Flight Track Log - Related Links

Times and Time Zones

All times are in EDT time to prevent confusion due to time zone crossing. See the LBQ611 flight status page for this flight to view local times or setup timezone preferences in your user account.

Time Position Orientation Groundspeed Altitude Reporting Facility
EDT Latitude Longitude Course Direction KTS MPH feet Rate Location/Type
Mon 08:59:22 PM 32.8608 -96.8725 315° West 174 200 1,300  Level FAA TRACON
Mon 09:00:01 PM 32.8836 -96.8997 305° West 190 219 3,100 2,550 Climbing FAA TRACON
Mon 09:00:42 PM 32.9042 -96.9342 277° West 196 226 4,700 2,561 Climbing FAA TRACON
Mon 09:01:23 PM 32.9083 -96.9769 222° Southwest 185 213 6,600 2,325 Climbing FAA TRACON
Mon 09:02:02 PM 32.8833 -97.0042 187° South 239 275 7,800 2,077 Climbing FAA TRACON
Mon 09:02:41 PM 32.8375 -97.0108 185° South 240 276 9,300 2,100 Climbing FAA TRACON
Mon 09:03:22 PM 32.7897 -97.0161 184° South 250 288 10,600 2,000 Climbing FAA TRACON
Mon 09:04:02 PM 32.7458 -97.0200 184° South 257 296 12,000 2,051 Climbing FAA TRACON
Mon 09:04:41 PM 32.6953 -97.0242 183° South 264 304 13,300 1,747 Climbing FAA TRACON
Mon 09:05:21 PM 32.6417 -97.0281 184° South 281 323 14,300 1,481 Climbing FAA TRACON
Mon 09:06:02 PM 32.5919 -97.0325 184° South 292 336 15,300 1,481 Climbing FAA TRACON
Mon 09:06:42 PM 32.5342 -97.0369 184° South 301 346 16,300 1,595 Climbing FAA TRACON
Mon 09:07:21 PM 32.4753 -97.0417 184° South 306 352 17,400 1,443 Climbing FAA TRACON
Mon 09:08:01 PM 32.4222 -97.0461 183° South 309 356 18,200 1,333 Climbing FAA TRACON
Mon 09:08:42 PM 32.3617 -97.0500 184° South 315 362 19,200 1,556 Climbing FAA TRACON
Mon 09:09:22 PM 32.3006 -97.0556 183° South 320 368 20,300 1,500 Climbing FAA TRACON
Mon 09:10:02 PM 32.2453 -97.0589 180° South 322 371 21,200 1,425 Climbing FAA TRACON
Mon 09:10:42 PM 32.1831 -97.0589 182° South 324 373 22,200 1,556 Climbing FAA TRACON
Mon 09:11:23 PM 32.1208 -97.0617 182° South 322 371 23,300 1,556 Climbing FAA TRACON
Mon 09:12:03 PM 32.0589 -97.0644 180° South 324 373 24,300 1,350 Climbing FAA TRACON
Mon 09:12:43 PM 32.0028 -97.0642 181° South 328 377 25,100 1,259 Climbing FAA TRACON
Mon 09:13:24 PM 31.9386 -97.0656 183° South 331 381 26,000 1,274 Climbing FAA TRACON
Mon 09:15:09 PM 31.7850 -97.0761 180° South 327 376 28,200 1,236 Climbing Fort Center
Mon 09:16:09 PM 31.6889 -97.0764 182° South 332 382 29,400 1,200 Climbing Fort Center
Mon 09:17:24 PM 31.5600 -97.0822 183° South 358 412 30,900 1,067 Climbing Houston Center
Mon 09:18:24 PM 31.4703 -97.0872 187° South 363 418 31,800 1,050 Climbing Houston Center
Mon 09:19:24 PM 31.3739 -97.1014 186° South 363 418 33,000 1,109 Climbing Houston Center
Mon 09:20:23 PM 31.2753 -97.1128 185° South 356 410 34,000 500 Climbing Houston Center
Mon 09:21:24 PM 31.1706 -97.1242 185° South 370 426 34,000  Level Houston Center
Mon 09:22:24 PM 31.0617 -97.1350 185° South 387 445 34,000  Level Houston Center
Mon 09:23:24 PM 30.9339 -97.1475 185° South 411 473 34,000  Level Houston Center
Mon 09:24:24 PM 30.8147 -97.1603 187° South 436 502 34,000  Level Houston Center
Mon 09:25:24 PM 30.7014 -97.1758 186° South 421 484 34,000  Level Houston Center
Mon 09:26:24 PM 30.5881 -97.1889 187° South 415 478 34,000  Level Houston Center
Mon 09:27:24 PM 30.4750 -97.2044 185° South 415 478 34,000  Level Houston Center
Mon 09:28:24 PM 30.3700 -97.2156 185° South 409 471 34,000  Level Houston Center
Mon 09:29:24 PM 30.2592 -97.2264 185° South 414 476 34,000  Level Houston Center
Mon 09:30:24 PM 30.1417 -97.2392 187° South 414 476 34,000  Level Houston Center
Mon 09:31:24 PM 30.0325 -97.2547 186° South 406 467 34,000  Level Houston Center
Mon 09:32:24 PM 29.9214 -97.2678 186° South 406 467 34,000  Level Houston Center
Mon 09:33:24 PM 29.8083 -97.2808 186° South 411 473 34,000  Level Houston Center
Mon 09:34:24 PM 29.6931 -97.2939 186° South 411 473 34,000  Level Houston Center
Mon 09:35:24 PM 29.5819 -97.3069 186° South 411 473 34,000  Level Houston Center
Mon 09:36:24 PM 29.4686 -97.3197 186° South 411 473 34,000 -200 Level Houston Center
Mon 09:37:24 PM 29.3556 -97.3328 186° South 411 473 33,600 -450 Descending Houston Center
Mon 09:38:24 PM 29.2400 -97.3456 185° South 411 473 33,100 -550 Descending Houston Center
Mon 09:39:24 PM 29.1247 -97.3581 186° South 411 473 32,500 -800 Descending Houston Center
Mon 09:40:24 PM 29.0094 -97.3708 185° South 417 480 31,500 -1,950 Descending Houston Center
Mon 09:41:24 PM 28.8817 -97.3831 185° South 424 488 28,600 -2,850 Descending Houston Center
Mon 09:42:24 PM 28.7686 -97.3936 188° South 424 488 25,800 -2,773 Descending Houston Center
Mon 09:43:23 PM 28.6550 -97.4111 184° South 424 488 23,100 -2,750 Descending Houston Center
Mon 09:44:24 PM 28.5503 -97.4194 185° South 410 472 20,300 -2,975 Descending Houston Center
Mon 09:45:24 PM 28.4436 -97.4303 188° South 374 430 17,100 -3,143 Descending Houston Center
Mon 09:46:30 PM 28.3342 -97.4481 193° South 348 400 13,700 -2,876 Descending Houston Center
Mon 09:47:25 PM 28.2519 -97.4694 194° South 332 382 11,300 -2,421 Descending Houston Center
Mon 09:48:24 PM 28.1739 -97.4911 193° South 338 389 9,100 -2,168 Descending Houston Center
Mon 09:49:24 PM 28.0936 -97.5128 193° South 317 365 7,000 -2,100 Descending Houston Center
Mon 09:50:24 PM 28.0133 -97.5342 186° South 305 351 4,900 -1,750 Descending Houston Center
Mon 09:51:24 PM 27.9356 -97.5442 184° South 305 351 3,500 -1,050 Descending Houston Center
Mon 09:52:24 PM 27.8686 -97.5500 183° South 288 331 2,800 -1,150 Descending Houston Center
Mon 09:53:24 PM 27.8267 -97.5525 183° South 239 275 1,200 -900 Descending Houston Center
Mon 09:54:24 PM 27.7681 -97.5561 183° South 228 262 1,000 -200 Descending Houston Center

Login

Don't have an account? Register now (free) for customized features, flight alerts, and more!